createdAt,value
2023-02-14T00:00:38.638Z,0.37
2023-02-14T00:05:40.441Z,0.27
2023-02-14T00:10:42.400Z,0.28
2023-02-14T00:15:44.451Z,0.28
2023-02-14T00:20:46.326Z,0.27
2023-02-14T00:25:47.889Z,0.17
2023-02-14T00:30:49.194Z,0.16
2023-02-14T00:35:51.061Z,0.15
2023-02-14T00:40:52.513Z,0.16
2023-02-14T00:45:54.421Z,-0.03
2023-02-14T00:50:55.670Z,-0.1
2023-02-14T00:55:57.584Z,-0.17
2023-02-14T01:00:59.817Z,-0.17
2023-02-14T01:06:01.386Z,-0.16
2023-02-14T01:11:03.136Z,-0.16
2023-02-14T01:16:04.940Z,-0.19
2023-02-14T01:21:06.952Z,-0.25
2023-02-14T01:26:08.223Z,-0.29
2023-02-14T01:31:10.274Z,-0.35
2023-02-14T01:36:11.772Z,-0.46
2023-02-14T01:41:13.777Z,-0.45
2023-02-14T01:46:15.832Z,-0.43
2023-02-14T01:51:17.541Z,-0.43
2023-02-14T01:56:18.918Z,-0.5
2023-02-14T02:01:20.444Z,-0.5
2023-02-14T02:06:22.130Z,-0.46
2023-02-14T02:11:23.753Z,-0.46
2023-02-14T02:16:25.628Z,-0.46
2023-02-14T02:21:27.469Z,-0.47
2023-02-14T02:26:29.239Z,-0.49
2023-02-14T02:31:31.012Z,-0.46
2023-02-14T02:36:32.551Z,-0.45
2023-02-14T02:41:34.201Z,-0.52
2023-02-14T02:46:36.000Z,-0.49
2023-02-14T02:51:37.284Z,-0.44
2023-02-14T02:56:39.375Z,-0.39
2023-02-14T03:01:41.481Z,-0.48
2023-02-14T03:06:43.020Z,-0.71
2023-02-14T03:11:44.344Z,-0.67
2023-02-14T03:16:46.566Z,-0.61
2023-02-14T03:21:48.220Z,-0.57
2023-02-14T03:26:49.762Z,-0.52
2023-02-14T03:31:51.947Z,-0.51
2023-02-14T03:36:52.873Z,-0.52
2023-02-14T03:41:54.707Z,-0.64
2023-02-14T03:46:56.009Z,-0.66
2023-02-14T03:51:57.624Z,-0.66
2023-02-14T03:56:59.565Z,-0.61
2023-02-14T04:02:01.740Z,-0.58
2023-02-14T04:07:03.626Z,-0.63
2023-02-14T04:12:04.923Z,-0.65
2023-02-14T04:17:06.713Z,-0.62
2023-02-14T04:22:07.891Z,-0.55
2023-02-14T04:27:09.544Z,-0.6
2023-02-14T04:32:11.045Z,-0.62
2023-02-14T04:37:12.279Z,-0.57
2023-02-14T04:42:13.953Z,-0.52
2023-02-14T04:47:15.964Z,-0.51
2023-02-14T04:52:17.659Z,-0.63
2023-02-14T04:57:19.613Z,-0.58
2023-02-14T05:02:21.297Z,-0.54
2023-02-14T05:07:23.400Z,-0.51
2023-02-14T05:12:25.504Z,-0.49
2023-02-14T05:17:26.789Z,-0.51
2023-02-14T05:22:28.491Z,-0.47
2023-02-14T05:27:30.193Z,-0.47
2023-02-14T05:32:31.593Z,-0.5
2023-02-14T05:32:37.901Z,-0.5
2023-02-14T05:37:39.264Z,-0.51
2023-02-14T05:42:40.760Z,-0.49
2023-02-14T05:47:42.604Z,-0.43
2023-02-14T05:52:44.575Z,-0.39
2023-02-14T05:57:45.784Z,-0.38
2023-02-14T06:02:47.455Z,-0.38
2023-02-14T06:07:49.114Z,-0.41
2023-02-14T06:12:50.325Z,-0.42
2023-02-14T06:17:51.622Z,-0.45
2023-02-14T06:22:53.595Z,-0.75
2023-02-14T06:27:55.069Z,-0.75
2023-02-14T06:32:57.099Z,-0.73
2023-02-14T06:37:58.928Z,-0.73
2023-02-14T06:43:00.359Z,-0.74
2023-02-14T06:48:01.882Z,-0.71
2023-02-14T06:53:03.326Z,-0.72
2023-02-14T06:58:04.904Z,-0.8
2023-02-14T07:03:06.713Z,-0.85
2023-02-14T07:08:08.707Z,-0.88
2023-02-14T07:13:10.509Z,-0.93
2023-02-14T07:18:11.574Z,-0.99
2023-02-14T07:23:13.312Z,-1.05
2023-02-14T07:28:15.053Z,-1.12
2023-02-14T07:33:16.834Z,-1.19
2023-02-14T07:38:18.701Z,-1.13
2023-02-14T07:43:20.261Z,-1.11
2023-02-14T07:48:21.898Z,-1.04
2023-02-14T07:53:23.764Z,-0.95
2023-02-14T07:58:25.309Z,-0.6
2023-02-14T08:03:27.083Z,-0.31
2023-02-14T08:08:28.756Z,-0.1
2023-02-14T08:13:30.814Z,-0.03
2023-02-14T08:18:32.413Z,0.03
2023-02-14T08:23:34.288Z,0.07
2023-02-14T08:28:35.666Z,0.11
2023-02-14T08:33:37.796Z,0.12
2023-02-14T08:38:39.093Z,0.15
2023-02-14T08:43:40.689Z,0.2
2023-02-14T08:48:42.250Z,0.24
2023-02-14T08:53:44.358Z,0.28
2023-02-14T08:58:45.820Z,0.27
2023-02-14T09:03:48.008Z,0.32
2023-02-14T09:08:49.631Z,0.34
2023-02-14T09:13:51.358Z,0.35
2023-02-14T09:18:53.229Z,0.35
2023-02-14T09:23:54.938Z,0.42
2023-02-14T09:28:56.782Z,0.49
2023-02-14T09:33:58.769Z,0.57
2023-02-14T09:39:00.469Z,0.62
2023-02-14T09:44:01.533Z,0.67
2023-02-14T09:49:03.366Z,0.79
2023-02-14T09:54:05.112Z,0.89
2023-02-14T09:59:06.534Z,0.99
2023-02-14T10:04:08.006Z,1.04
2023-02-14T10:09:09.723Z,1.1
2023-02-14T10:14:11.384Z,1.13
2023-02-14T10:19:13.448Z,1.16
2023-02-14T10:24:15.036Z,1.1
2023-02-14T10:29:16.953Z,1.02
2023-02-14T10:34:18.672Z,1.09
2023-02-14T10:39:20.005Z,1.16
2023-02-14T10:44:21.568Z,1.22
2023-02-14T10:49:23.452Z,1.25
2023-02-14T10:54:25.093Z,1.33
2023-02-14T10:59:27.008Z,1.46
2023-02-14T11:04:28.497Z,1.43
2023-02-14T11:09:30.104Z,1.27
2023-02-14T11:14:31.945Z,0.89
2023-02-14T11:19:34.584Z,0.87
2023-02-14T11:24:35.710Z,0.92
2023-02-14T11:29:37.107Z,0.91
2023-02-14T11:34:38.772Z,1.07
2023-02-14T11:39:40.950Z,1.25
2023-02-14T11:44:42.987Z,1.38
2023-02-14T11:49:44.313Z,1.42
2023-02-14T11:54:46.260Z,1.42
2023-02-14T11:59:47.560Z,1.64
2023-02-14T12:04:49.358Z,1.73
2023-02-14T12:09:50.767Z,1.79
2023-02-14T12:14:52.256Z,1.9
2023-02-14T12:19:53.779Z,1.94
2023-02-14T12:24:55.452Z,2.14
2023-02-14T12:29:57.299Z,2.33
2023-02-14T12:34:58.940Z,2.46
2023-02-14T12:40:00.652Z,2.49
2023-02-14T13:20:14.823Z,2.77
2023-02-14T13:25:16.422Z,2.85
2023-02-14T13:30:18.550Z,2.89
2023-02-14T13:45:23.779Z,2.6
2023-02-14T13:50:25.125Z,2.16
2023-02-14T13:55:27.081Z,2.09
2023-02-14T14:05:29.694Z,1.87
2023-02-14T14:10:31.084Z,1.8
2023-02-14T14:15:32.902Z,1.85
2023-02-14T14:20:35.050Z,1.92
2023-02-14T14:25:36.692Z,1.82
2023-02-14T14:30:38.469Z,1.82
2023-02-14T14:35:40.140Z,1.74
2023-02-14T14:40:42.255Z,1.69
2023-02-14T14:45:43.557Z,1.65
2023-02-14T14:50:44.724Z,1.63
2023-02-14T14:55:46.953Z,1.61
2023-02-14T15:00:48.579Z,1.67
2023-02-14T15:05:50.656Z,1.67
2023-02-14T15:10:52.804Z,1.71
2023-02-14T15:15:54.680Z,1.76
2023-02-14T15:20:56.402Z,1.86
2023-02-14T15:25:58.360Z,1.68
2023-02-14T15:31:00.453Z,1.57
2023-02-14T15:36:01.325Z,1.59
2023-02-14T15:41:03.156Z,1.66
2023-02-14T15:46:05.307Z,1.65
2023-02-14T15:51:06.959Z,1.45
2023-02-14T15:56:09.003Z,1.42
2023-02-14T16:01:10.573Z,1.19
2023-02-14T16:06:12.189Z,1.25
2023-02-14T16:11:14.006Z,1.22
2023-02-14T16:16:15.304Z,2.06
2023-02-14T16:21:16.972Z,2.67
2023-02-14T16:26:19.144Z,3.47
2023-02-14T16:31:20.832Z,2.91
2023-02-14T16:36:21.929Z,2.38
2023-02-14T16:41:23.441Z,2.16
2023-02-14T16:46:25.155Z,1.98
2023-02-14T16:51:26.687Z,1.81
2023-02-14T16:56:28.374Z,1.56
2023-02-14T17:01:30.033Z,1.49
2023-02-14T17:06:31.844Z,1.43
2023-02-14T17:11:33.890Z,1.33
2023-02-14T17:16:35.955Z,1.16
2023-02-14T17:21:38.084Z,1.16
2023-02-14T17:26:39.467Z,1.21
2023-02-14T17:31:40.915Z,1.28
2023-02-14T17:36:42.065Z,1.23
2023-02-14T17:41:43.614Z,1.12
2023-02-14T17:46:45.671Z,0.91
2023-02-14T17:51:47.316Z,0.85
2023-02-14T17:56:48.877Z,0.84
2023-02-14T18:01:50.949Z,0.79
2023-02-14T18:06:52.229Z,0.77
2023-02-14T18:11:54.090Z,0.75
2023-02-14T18:16:56.063Z,0.67
2023-02-14T18:21:57.374Z,0.51
2023-02-14T18:26:59.101Z,0.39
2023-02-14T18:32:00.762Z,0.38
2023-02-14T18:37:02.628Z,0.4
2023-02-14T18:42:04.224Z,0.42
2023-02-14T18:47:05.450Z,0.41
2023-02-14T18:52:06.641Z,0.32
2023-02-14T18:57:08.512Z,0.34
2023-02-14T19:02:10.129Z,0.37
2023-02-14T19:07:12.148Z,0.36
2023-02-14T19:12:13.899Z,0.36
2023-02-14T19:17:15.847Z,0.17
2023-02-14T19:22:17.597Z,0.17
2023-02-14T19:27:19.453Z,0.07
2023-02-14T19:32:20.788Z,-0.05
2023-02-14T19:37:22.849Z,-0.04
2023-02-14T19:42:25.024Z,-0.13
2023-02-14T19:47:39.785Z,-0.35
2023-02-14T19:52:27.847Z,-0.45
2023-02-14T19:57:30.115Z,-0.5
2023-02-14T20:02:32.155Z,-0.48
2023-02-14T20:07:33.463Z,-0.52
2023-02-14T20:12:34.839Z,-0.56
2023-02-14T20:17:36.511Z,-0.58
2023-02-14T20:22:38.129Z,-0.61
2023-02-14T20:27:40.064Z,-0.64
2023-02-14T20:32:41.893Z,-0.64
2023-02-14T20:37:43.745Z,-0.67
2023-02-14T20:42:45.301Z,-0.78
2023-02-14T20:47:47.077Z,-0.93
2023-02-14T20:52:48.409Z,-0.93
2023-02-14T20:57:50.158Z,-0.98
2023-02-14T21:02:51.787Z,-0.96
2023-02-14T21:07:53.454Z,-0.95
2023-02-14T21:12:55.541Z,-0.87
2023-02-14T21:17:57.249Z,-0.85
2023-02-14T21:22:59.095Z,-0.84
2023-02-14T21:28:00.414Z,-0.82
2023-02-14T21:33:02.122Z,-0.83
2023-02-14T21:38:03.297Z,-0.8
2023-02-14T21:43:04.717Z,-0.82
2023-02-14T21:48:06.412Z,-0.8
2023-02-14T21:53:07.653Z,-0.81
2023-02-14T21:58:09.247Z,-0.91
2023-02-14T22:03:12.312Z,-1.03
2023-02-14T22:08:12.583Z,-1.16
2023-02-14T22:13:14.645Z,-1.16
2023-02-14T22:18:15.880Z,-1.12
2023-02-14T22:18:22.189Z,-1.12
2023-02-14T22:23:24.595Z,-1.05
2023-02-14T22:28:24.988Z,-1.03
2023-02-14T22:33:26.291Z,-0.97
2023-02-14T22:38:27.648Z,-0.88
2023-02-14T22:43:28.768Z,-0.87
2023-02-14T22:48:30.661Z,-1
2023-02-14T22:53:31.885Z,-1
2023-02-14T22:58:33.172Z,-1.02
2023-02-14T23:13:37.671Z,-1.16
2023-02-14T23:18:38.857Z,-1.19
2023-02-14T23:23:40.746Z,-1.2
2023-02-14T23:28:42.475Z,-1.2
2023-02-14T23:33:43.623Z,-1.19
2023-02-14T23:38:45.403Z,-1.17
2023-02-14T23:43:47.160Z,-1.12
2023-02-14T23:48:49.116Z,-1.13
2023-02-14T23:53:50.328Z,-1.14
2023-02-14T23:58:51.631Z,-1.16
